Portada
METAR-TAF:

METAR-TAF

Aeroports :

Aeroport d'Auckland

Auckland, Nova Zelanda

latitud: 37-01S, longitud: 174-48E, altitud: 7 m

Observació

L'informe es va fer fa 30 minuts, a les 19:30 UTC
Vent 5 kt del Sud/Sud-Est
Temperatura 8°C
Humitat 93%
Pressió 1026 hPa
Visibilitat 10 km o més

METAR: NZAA 261930Z AUTO 15005KT 9999 NCD 08/07 Q1026 NOSIG

Hora: 08:00 (20:00 UTC)

Pronòstic

L'informe es va fer fa 2 hores i 53 minuts, a les 17:07 UTC
Pronòstic vàlid del 26 a les 18 UTC al 27 a les 18 UTC
Vent 5 kt del Sud-Est
Visibilitat 10 km o més
Escasses núvols a una alçada de 3000 ft

TAF: NZAA 261707Z 2618/2718 13005KT 9999 FEW030

Observacions i pronòstics meteorològics de més de 4000 aeroports (METAR i TAF).

Les estacions disponibles són els punts grocs i vermells al mapa.

Posi el ratolí al punt desitjat per veure el nom de l'estació.

Feu clic per veure les observacions i els pronòstics meteorològics.

Per canviar el mapa: feu clic els botons verds amb una creu de color negre per apropar; al botó verd amb un guió per allunyar la imatge; o en les fletxes verdes per a mapes adjacents.


METAR-TAF: